Currently 48°F in Murrieta, California, USA
48°F
50°F / 48°F
calm
0.00"
Tuesday, December 11, 2018 1:59 AM PST

Murrieta, California Weather Summary
Last 36 Hours

Temperature Winds Hourly Humidity Dewpoint
Time Report Norm Report Norm Max Gusts Precip. Rpt. Norm Rpt. Norm Pressure
1,3Tue 01:59 AM  47.8°F  47°F  calm  1 mph  2 mph  0.00"  93%  80%  46°F  40°F  30.06"
Tue 01:00 AM  49.1°F  47°F  calm  1 mph  1 mph  0.00"  90%  79%  46°F  41°F  30.07"
2Tue 12:07 AM  49.9°F  48°F  calm  1 mph  2 mph  ----  88%  78%  46°F  41°F  30.08"
Tue 12:00 AM  49.8°F  48°F  calm  1 mph  3 mph  0.00"  88%  77%  46°F  41°F  30.08"
Mon 11:00 PM  50.9°F  49°F  calm  1 mph  4 mph  0.00"  84%  76%  46°F  42°F  30.08"
Mon 10:00 PM  51.8°F  50°F  calm  1 mph  9 mph  0.00"  81%  74%  46°F  42°F  30.07"
Mon 09:00 PM  50.7°F  51°F  calm  2 mph  9 mph  0.00"  87%  73%  47°F  42°F  30.06"
Mon 08:00 PM  51.8°F  52°F  calm  1 mph  2 mph  0.00"  82%  70%  46°F  43°F  30.06"
Mon 07:00 PM  53.5°F  54°F  calm  2 mph  9 mph  0.00"  79%  68%  47°F  43°F  30.05"
Mon 06:00 PM  55.9°F  56°F  5 mph SW  3 mph  10 mph  0.00"  76%  65%  48°F  44°F  30.05"
Mon 05:00 PM  57.9°F  59°F  4 mph W  3 mph  1 mph  0.00"  69%  61%  47°F  45°F  30.05"
Mon 04:00 PM  62.4°F  62°F  calm  4 mph  2 mph  0.00"  68%  54%  51°F  44°F  30.04"
Mon 03:00 PM  64.2°F  66°F  calm  4 mph  none  0.00"  62%  46%  50°F  44°F  30.05"
Mon 02:00 PM  63.4°F  67°F  calm  4 mph  4 mph  0.00"  63%  44%  50°F  44°F  30.04"
Mon 01:00 PM  61.9°F  66°F  calm  4 mph  6 mph  0.00"  68%  46%  51°F  44°F  30.07"
Mon 12:00 PM  58.7°F  65°F  calm  3 mph  none  0.00"  74%  48%  50°F  44°F  30.09"
Mon 11:00 AM  56.4°F  62°F  calm  3 mph  5 mph  0.00"  79%  54%  50°F  45°F  30.12"
Mon 10:00 AM  57.1°F  57°F  calm  2 mph  none  0.00"  79%  64%  50°F  45°F  30.15"
Mon 09:00 AM  51.8°F  52°F  calm  1 mph  5 mph  0.00"  89%  75%  49°F  44°F  30.14"
Mon 08:00 AM  48.6°F  46°F  calm  1 mph  3 mph  0.00"  92%  82%  46°F  41°F  30.14"
Mon 07:00 AM  48.5°F  44°F  calm  1 mph  5 mph  0.00"  89%  83%  45°F  39°F  30.14"
Mon 06:00 AM  47.4°F  44°F  calm  1 mph  none  0.00"  92%  83%  45°F  39°F  30.14"
Mon 05:00 AM  47.3°F  44°F  calm  1 mph  none  0.00"  90%  82%  44°F  39°F  30.14"
Mon 04:00 AM  48.3°F  45°F  calm  1 mph  none  0.00"  89%  81%  45°F  39°F  30.14"
Mon 03:00 AM  48.4°F  46°F  calm  1 mph  none  0.00"  88%  80%  45°F  40°F  30.15"
Mon 02:00 AM  49.2°F  46°F  calm  1 mph  4 mph  0.00"  84%  79%  44°F  40°F  30.16"
Mon 01:00 AM  51.3°F  47°F  calm  1 mph  8 mph  0.00"  81%  78%  45°F  40°F  30.17"
Mon 12:00 AM  50.5°F  48°F  calm  1 mph  1 mph  0.00"  83%  77%  45°F  41°F  30.18"
Sun 11:00 PM  51.2°F  49°F  calm  1 mph  1 mph  0.00"  80%  75%  45°F  41°F  30.21"
Sun 10:00 PM  52.4°F  50°F  calm  1 mph  none  0.00"  76%  74%  45°F  42°F  30.22"
Sun 09:00 PM  54.2°F  51°F  calm  2 mph  10 mph  0.00"  71%  72%  45°F  42°F  30.22"
Sun 08:00 PM  58.6°F  52°F  4 mph NW  2 mph  9 mph  0.00"  62%  69%  45°F  42°F  30.22"
Sun 07:00 PM  60.5°F  54°F  6 mph NW  2 mph  9 mph  0.00"  57%  67%  45°F  43°F  30.21"
Sun 06:00 PM  62.7°F  56°F  calm  3 mph  11 mph  0.00"  53%  64%  45°F  44°F  30.21"
Sun 05:00 PM  65.2°F  59°F  2 mph SE  3 mph  10 mph  0.00"  48%  59%  45°F  44°F  30.21"
Sun 04:00 PM  66.8°F  62°F  calm  4 mph  7 mph  0.00"  46%  53%  44°F  44°F  30.21"
Sun 03:00 PM  68.3°F  66°F  2 mph NW  4 mph  9 mph  0.00"  42%  46%  44°F  44°F  30.20"
Sun 02:00 PM  69.3°F  67°F  4 mph NW  4 mph  9 mph  0.00"  44%  44%  46°F  43°F  30.20"

  1. Current weather data. No green row appears if the current weather data is also the high or low for the current day.
  2. High temperature for the current day.
  3. Low temperature for the current day.

The Murrieta weather pages are a service of WeatherCurrents. Murrieta, California is located in the Temecula Valley, in southwestern Riverside County, at the junctions of the Interstate 15 and 215 highways.
Copyright ©Tue Dec 11 01:59:50 PST 2018  WeatherCurrents. All rights reserved. - Submit questions and comments - Privacy Policy

This page automatically refreshes every 10 minutes.